Terminal Aerodrome Forecast
Issued by NWS Boston, MA

Home | Current Version | Previous Version | Text Only | Print | Product List | Glossary On
Versions: 1 2 3 4 5 6 7 8 9 10 11 12 13 14 15 16 17 18 19 20 21 22 23 24 25 26 27 28 29
000
FTUS41 KBOX 192322
TAFORH
TAF
KORH 192322Z 2000/2024 17006KT P6SM SCT250
     FM201100 10006KT P6SM BKN130
     FM201500 08010KT 3SM -RA BR OVC020
     FM201800 07014G24KT 2SM -RA BR OVC010 WS020/12035KT
     FM202000 08014G23KT 2SM -RA BR OVC008 WS020/13035KT
     FM202200 10011G19KT 3SM -SHRA BR OVC010=

USA.gov is the U.S. government's official web portal to all federal, state and local government web resources and services.